Time;durP1;ratioP1;P1;durP2;ratioP2;P2;SDS_P1;SDS_P2;PMS_P1;PMS_P2;Temp;Humidity;BMP_temperature;BMP_pressure;BME280_temperature;BME280_humidity;BME280_pressure;Samples;Min_cycle;Max_cycle;Signal;HPM_P1;HPM_P2
2024/01/31 00:00:24;;;;;;;10.10;6.22;;;;;;;2.23;100.00;94486.25;2087339;28;20033;-78
2024/01/31 00:01:25;;;;;;;9.07;5.35;;;;;;;2.16;100.00;94482.63;2067434;28;20545;-79
2024/01/31 00:02:26;;;;;;;8.27;5.43;;;;;;;2.14;100.00;94482.94;2066496;28;20392;-78
2024/01/31 00:03:27;;;;;;;8.63;6.15;;;;;;;2.10;100.00;94484.69;2086405;28;20036;-79
2024/01/31 00:04:28;;;;;;;8.35;5.32;;;;;;;2.14;100.00;94490.09;2082610;28;20134;-80
2024/01/31 00:05:29;;;;;;;9.45;5.93;;;;;;;2.23;100.00;94490.75;2085415;28;20039;-80
2024/01/31 00:06:30;;;;;;;7.97;6.32;;;;;;;2.14;100.00;94490.09;2083960;28;20040;-80
2024/01/31 00:07:31;;;;;;;8.27;5.78;;;;;;;2.07;100.00;94482.72;2067910;28;20028;-78
2024/01/31 00:08:32;;;;;;;9.25;5.68;;;;;;;1.99;100.00;94481.72;2089769;28;20048;-79
2024/01/31 00:09:33;;;;;;;6.43;5.25;;;;;;;2.06;100.00;94477.75;2073539;28;20053;-80
2024/01/31 00:10:34;;;;;;;8.07;6.07;;;;;;;2.08;100.00;94476.34;2072971;28;20025;-79
2024/01/31 00:11:35;;;;;;;8.05;5.68;;;;;;;2.03;100.00;94483.72;2064102;28;20060;-80
2024/01/31 00:12:36;;;;;;;8.55;6.15;;;;;;;2.10;100.00;94486.56;2101526;28;20058;-79
2024/01/31 00:13:37;;;;;;;9.02;6.10;;;;;;;2.10;100.00;94482.06;2089830;28;20032;-80
2024/01/31 00:14:38;;;;;;;6.25;5.60;;;;;;;2.09;100.00;94477.13;2083348;28;20461;-79
2024/01/31 00:15:39;;;;;;;7.68;5.72;;;;;;;2.11;100.00;94482.81;2102295;28;20031;-80
2024/01/31 00:16:40;;;;;;;7.45;5.68;;;;;;;2.13;100.00;94484.03;2085709;28;20025;-79
2024/01/31 00:17:41;;;;;;;8.20;5.70;;;;;;;2.25;100.00;94483.28;2088833;28;20028;-80
2024/01/31 00:18:42;;;;;;;7.82;5.75;;;;;;;2.14;100.00;94480.31;2100465;28;20520;-79
2024/01/31 00:19:43;;;;;;;7.32;6.18;;;;;;;2.12;100.00;94484.38;2070997;28;20876;-79
2024/01/31 00:20:44;;;;;;;8.20;6.32;;;;;;;2.13;100.00;94489.31;2089366;28;20385;-79
2024/01/31 00:21:45;;;;;;;7.75;5.40;;;;;;;2.04;100.00;94488.66;2065849;28;20850;-80
2024/01/31 00:22:46;;;;;;;7.72;5.78;;;;;;;2.04;100.00;94490.53;2096660;28;20178;-80
2024/01/31 00:23:47;;;;;;;7.82;5.70;;;;;;;1.96;100.00;94490.28;2082337;28;20028;-80
2024/01/31 00:24:48;;;;;;;7.80;5.53;;;;;;;1.97;100.00;94489.16;2085297;28;20032;-80
2024/01/31 00:25:50;;;;;;;7.63;5.82;;;;;;;1.94;100.00;94492.47;2097302;28;20299;-78
2024/01/31 00:26:51;;;;;;;6.00;5.40;;;;;;;1.99;100.00;94492.25;2080014;28;20031;-79
2024/01/31 00:27:52;;;;;;;6.90;5.50;;;;;;;1.90;100.00;94491.59;2093330;28;20448;-78
2024/01/31 00:28:53;;;;;;;8.48;6.32;;;;;;;1.93;100.00;94490.16;2077450;28;20025;-79
2024/01/31 00:29:54;;;;;;;8.90;5.40;;;;;;;1.85;100.00;94491.03;2067404;28;20180;-79
2024/01/31 00:30:54;;;;;;;9.52;6.20;;;;;;;1.86;100.00;94495.97;2070567;28;20124;-78
2024/01/31 00:31:56;;;;;;;7.93;5.90;;;;;;;1.86;100.00;94488.06;2068154;28;20317;-79
2024/01/31 00:32:57;;;;;;;9.95;6.05;;;;;;;1.83;100.00;94487.94;2079757;28;20028;-79
2024/01/31 00:33:58;;;;;;;7.82;5.75;;;;;;;1.84;100.00;94490.25;2097068;28;20032;-79
2024/01/31 00:34:59;;;;;;;9.07;6.15;;;;;;;1.84;100.00;94490.25;2078090;28;20664;-79
2024/01/31 00:36:01;;;;;;;8.63;5.60;;;;;;;1.80;100.00;94480.69;2097089;28;20580;-78
2024/01/31 00:37:03;;;;;;;9.70;5.70;;;;;;;1.84;100.00;94490.25;2080588;28;20021;-80
2024/01/31 00:38:04;;;;;;;7.88;5.88;;;;;;;1.91;100.00;94485.22;2089170;28;20025;-81
2024/01/31 00:39:05;;;;;;;7.72;5.47;;;;;;;1.87;100.00;94481.69;2059357;28;20078;-79
2024/01/31 00:40:09;;;;;;;7.20;5.85;;;;;;;1.88;100.00;94480.59;2066579;28;20021;-79
2024/01/31 00:41:10;;;;;;;7.60;5.80;;;;;;;1.87;100.00;94478.28;2092933;28;20106;-81
2024/01/31 00:42:11;;;;;;;9.10;5.80;;;;;;;1.81;100.00;94483.00;2070463;28;20765;-78
2024/01/31 00:43:12;;;;;;;7.60;5.45;;;;;;;1.82;100.00;94486.41;2084713;28;20029;-80
2024/01/31 00:44:13;;;;;;;8.27;5.60;;;;;;;1.90;100.00;94481.03;2072094;28;20412;-79
2024/01/31 00:45:14;;;;;;;9.52;5.78;;;;;;;1.91;100.00;94487.84;2089175;28;20017;-80
2024/01/31 00:46:15;;;;;;;8.88;6.18;;;;;;;1.87;100.00;94478.28;2064595;28;20121;-80
2024/01/31 00:47:16;;;;;;;8.02;6.38;;;;;;;1.89;100.00;94484.00;2081482;28;20231;-79
2024/01/31 00:48:17;;;;;;;8.60;5.75;;;;;;;1.94;100.00;94486.44;2093008;28;20043;-79
2024/01/31 00:49:18;;;;;;;7.60;5.85;;;;;;;1.92;100.00;94481.47;2079435;28;20461;-80
2024/01/31 00:50:19;;;;;;;8.23;5.60;;;;;;;1.99;100.00;94487.00;2095800;28;20024;-78
2024/01/31 00:51:20;;;;;;;7.50;5.72;;;;;;;1.93;100.00;94487.50;2070690;28;20039;-80
2024/01/31 00:52:21;;;;;;;9.63;5.53;;;;;;;1.96;100.00;94482.38;2096231;28;20028;-80
2024/01/31 00:53:22;;;;;;;9.70;6.00;;;;;;;1.94;100.00;94489.06;2089768;28;20028;-79
2024/01/31 00:54:24;;;;;;;5.95;5.35;;;;;;;1.95;100.00;94485.34;2090454;28;20040;-80
2024/01/31 00:55:25;;;;;;;9.50;5.57;;;;;;;1.86;100.00;94474.88;2094362;28;20615;-78
2024/01/31 00:56:26;;;;;;;9.57;6.30;;;;;;;1.87;100.00;94483.56;2066898;28;20703;-79
2024/01/31 00:57:26;;;;;;;8.35;5.53;;;;;;;1.78;100.00;94488.91;2081267;28;20394;-81
2024/01/31 00:58:27;;;;;;;6.40;5.63;;;;;;;1.73;100.00;94482.00;2071508;28;20064;-79
2024/01/31 00:59:28;;;;;;;7.75;5.53;;;;;;;1.74;100.00;94488.03;2080142;28;20112;-80
2024/01/31 01:00:29;;;;;;;8.15;5.63;;;;;;;1.63;100.00;94486.91;2067529;28;20025;-77
2024/01/31 01:01:30;;;;;;;8.73;5.88;;;;;;;1.57;100.00;94485.56;2085531;28;20035;-80
2024/01/31 01:02:35;;;;;;;8.18;5.32;;;;;;;1.59;100.00;94489.41;2104312;28;20085;-78
2024/01/31 01:03:36;;;;;;;8.20;5.50;;;;;;;1.57;100.00;94486.31;2059084;28;20468;-80
2024/01/31 01:04:37;;;;;;;8.43;5.70;;;;;;;1.60;100.00;94484.91;2079788;28;20072;-81
2024/01/31 01:05:38;;;;;;;10.25;5.97;;;;;;;1.54;100.00;94481.72;2065590;28;20029;-79
2024/01/31 01:06:40;;;;;;;9.07;5.28;;;;;;;1.46;100.00;94488.59;2066809;28;20025;-79
2024/01/31 01:07:43;;;;;;;9.35;5.40;;;;;;;1.55;100.00;94493.03;2092107;28;20036;-81
2024/01/31 01:08:44;;;;;;;8.27;5.13;;;;;;;1.58;100.00;94479.97;2085535;28;20168;-79
2024/01/31 01:09:45;;;;;;;8.13;5.70;;;;;;;1.51;100.00;94482.38;2089031;28;20444;-78
2024/01/31 01:10:46;;;;;;;7.57;5.22;;;;;;;1.50;100.00;94486.88;2079091;28;20124;-80
2024/01/31 01:11:47;;;;;;;6.65;5.30;;;;;;;1.42;100.00;94489.56;2075709;28;20028;-79
2024/01/31 01:12:48;;;;;;;11.73;6.28;;;;;;;1.48;100.00;94490.91;2090689;28;20115;-80
2024/01/31 01:13:49;;;;;;;7.30;5.10;;;;;;;1.51;100.00;94487.63;2065219;28;20873;-80
2024/01/31 01:14:50;;;;;;;7.00;5.00;;;;;;;1.46;100.00;94485.19;2086934;28;20079;-80
2024/01/31 01:15:51;;;;;;;8.02;4.88;;;;;;;1.42;100.00;94482.44;2071356;28;20393;-80
2024/01/31 01:16:52;;;;;;;8.88;5.68;;;;;;;1.41;100.00;94488.03;2070299;28;20456;-78
2024/01/31 01:17:53;;;;;;;6.35;5.13;;;;;;;1.40;100.00;94484.59;2094230;28;20040;-78
2024/01/31 01:18:54;;;;;;;6.88;4.78;;;;;;;1.39;100.00;94490.97;2090532;28;24892;-80
2024/01/31 01:19:55;;;;;;;7.00;4.88;;;;;;;1.55;100.00;94493.78;2099966;28;20032;-80
2024/01/31 01:20:56;;;;;;;8.43;5.13;;;;;;;1.58;100.00;94487.09;2072971;28;20074;-78
2024/01/31 01:21:57;;;;;;;7.85;5.03;;;;;;;1.51;100.00;94483.13;2096246;28;20052;-80
2024/01/31 01:22:58;;;;;;;7.47;4.97;;;;;;;1.55;100.00;94487.75;2084808;28;20024;-78
2024/01/31 01:23:59;;;;;;;6.47;5.18;;;;;;;1.41;100.00;94488.81;2079452;28;20602;-80
2024/01/31 01:25:01;;;;;;;7.70;5.18;;;;;;;1.47;100.00;94490.13;2095755;28;20043;-81
2024/01/31 01:26:02;;;;;;;5.45;4.38;;;;;;;1.52;100.00;94489.16;2076987;28;20048;-78
2024/01/31 01:27:03;;;;;;;8.95;5.15;;;;;;;1.46;100.00;94487.84;2095067;28;20103;-78
2024/01/31 01:28:04;;;;;;;8.60;5.05;;;;;;;1.45;100.00;94494.22;2059369;28;20795;-80
2024/01/31 01:29:06;;;;;;;8.38;5.20;;;;;;;1.45;100.00;94494.97;2080272;28;20036;-80
2024/01/31 01:30:07;;;;;;;8.80;5.05;;;;;;;1.49;100.00;94493.22;2053741;28;20686;-79
2024/01/31 01:31:10;;;;;;;8.02;5.45;;;;;;;1.43;100.00;94493.75;2079137;28;20037;-79
2024/01/31 01:32:11;;;;;;;7.38;4.85;;;;;;;1.41;100.00;94488.81;2087720;28;20032;-80
2024/01/31 01:33:12;;;;;;;9.35;5.47;;;;;;;1.48;100.00;94491.66;2073096;28;20068;-79
2024/01/31 01:34:13;;;;;;;7.53;5.00;;;;;;;1.49;100.00;94490.59;2086248;28;20106;-80
2024/01/31 01:35:14;;;;;;;8.57;4.90;;;;;;;1.53;100.00;94495.97;2066356;28;20036;-80
2024/01/31 01:36:16;;;;;;;7.10;4.93;;;;;;;1.48;100.00;94489.03;2068126;28;20537;-78
2024/01/31 01:37:17;;;;;;;7.60;4.70;;;;;;;1.54;100.00;94496.75;2072179;28;20120;-79
2024/01/31 01:38:18;;;;;;;7.25;4.90;;;;;;;1.49;100.00;94493.22;2090811;28;20115;-80
2024/01/31 01:39:19;;;;;;;5.93;4.80;;;;;;;1.46;100.00;94496.50;2085135;28;20489;-79
2024/01/31 01:40:20;;;;;;;8.38;4.88;;;;;;;1.44;100.00;94493.41;2062415;28;20167;-78
2024/01/31 01:41:21;;;;;;;7.40;4.70;;;;;;;1.46;100.00;94490.47;2100127;28;20528;-79
2024/01/31 01:42:22;;;;;;;6.07;4.40;;;;;;;1.51;100.00;94493.66;2092169;28;20603;-79
2024/01/31 01:43:24;;;;;;;7.57;4.88;;;;;;;1.50;100.00;94494.78;2079653;28;20063;-79
2024/01/31 01:44:25;;;;;;;6.70;5.00;;;;;;;1.33;100.00;94502.06;2092384;28;20078;-80
2024/01/31 01:45:29;;;;;;;6.45;4.70;;;;;;;1.33;100.00;94502.06;2077314;28;20086;-81
2024/01/31 01:46:34;;;;;;;7.80;4.75;;;;;;;1.34;100.00;94498.31;2091072;28;20229;-79
2024/01/31 01:47:36;;;;;;;6.82;4.85;;;;;;;1.22;100.00;94506.91;2093682;28;20046;-78
2024/01/31 01:48:37;;;;;;;5.40;4.57;;;;;;;1.29;100.00;94496.66;2082738;28;20552;-78
2024/01/31 01:49:38;;;;;;;8.68;4.95;;;;;;;1.26;100.00;94505.94;2098496;28;20042;-80
2024/01/31 01:50:40;;;;;;;7.18;4.68;;;;;;;1.30;100.00;94505.31;2088589;28;20085;-80
2024/01/31 01:51:44;;;;;;;7.13;4.95;;;;;;;1.19;100.00;94504.94;2068019;28;20319;-78
2024/01/31 01:52:46;;;;;;;6.75;4.63;;;;;;;1.20;100.00;94506.47;2080088;28;20736;-80
2024/01/31 01:53:49;;;;;;;7.30;4.75;;;;;;;1.17;100.00;94505.25;2094982;28;20020;-80
2024/01/31 01:54:50;;;;;;;6.45;4.95;;;;;;;1.08;100.00;94507.19;2088406;28;20024;-78
2024/01/31 01:55:51;;;;;;;5.25;3.92;;;;;;;1.11;100.00;94505.78;2098694;28;20101;-78
2024/01/31 01:56:53;;;;;;;6.45;4.43;;;;;;;1.18;100.00;94509.41;2085307;28;20029;-81
2024/01/31 01:57:55;;;;;;;5.07;4.20;;;;;;;1.21;100.00;94513.28;2080476;28;20473;-80
2024/01/31 01:58:57;;;;;;;7.43;4.80;;;;;;;1.09;100.00;94507.94;2071223;28;20461;-80
2024/01/31 01:59:59;;;;;;;5.32;3.97;;;;;;;1.10;100.00;94505.00;2086623;28;20790;-79
2024/01/31 02:01:00;;;;;;;5.38;4.30;;;;;;;1.13;100.00;94503.59;2089079;28;20036;-80
2024/01/31 02:02:02;;;;;;;5.90;4.78;;;;;;;1.09;100.00;94510.59;2079796;28;20029;-79
2024/01/31 02:03:05;;;;;;;5.47;4.38;;;;;;;1.11;100.00;94505.78;2096584;28;20047;-80
2024/01/31 02:04:08;;;;;;;5.38;4.32;;;;;;;1.15;100.00;94504.06;2078789;28;20144;-79
2024/01/31 02:05:09;;;;;;;5.55;4.50;;;;;;;1.12;100.00;94497.56;2063516;28;20021;-79
2024/01/31 02:06:13;;;;;;;5.95;4.20;;;;;;;1.08;100.00;94501.16;2083062;28;20043;-79
2024/01/31 02:07:14;;;;;;;6.05;4.00;;;;;;;0.93;100.00;94498.00;2085373;28;20464;-79
2024/01/31 02:08:16;;;;;;;5.97;4.60;;;;;;;1.01;100.00;94493.78;2089141;28;20045;-78
2024/01/31 02:09:18;;;;;;;6.88;4.68;;;;;;;0.97;100.00;94488.38;2078914;28;20020;-78
2024/01/31 02:10:19;;;;;;;5.90;4.13;;;;;;;0.97;100.00;94495.50;2071414;28;20022;-79
2024/01/31 02:11:20;;;;;;;7.72;4.30;;;;;;;1.00;100.00;94490.34;2087596;28;20778;-79
2024/01/31 02:12:21;;;;;;;5.13;4.13;;;;;;;1.00;100.00;94490.34;2086162;28;20066;-79
2024/01/31 02:13:23;;;;;;;6.47;3.92;;;;;;;0.96;100.00;94494.72;2090837;28;20033;-79
2024/01/31 02:14:24;;;;;;;6.30;4.15;;;;;;;0.87;100.00;94490.59;2071854;28;20754;-79
2024/01/31 02:15:25;;;;;;;6.05;4.07;;;;;;;0.90;100.00;94489.97;2077887;28;20052;-80
2024/01/31 02:16:26;;;;;;;7.20;3.85;;;;;;;0.86;100.00;94492.47;2102357;28;20126;-80
2024/01/31 02:17:27;;;;;;;4.97;3.95;;;;;;;0.93;100.00;94492.75;2087834;28;20025;-79
2024/01/31 02:18:28;;;;;;;5.82;4.15;;;;;;;0.94;100.00;94488.25;2090906;28;20036;-78
2024/01/31 02:19:29;;;;;;;6.25;4.00;;;;;;;0.94;100.00;94498.78;2079598;28;20031;-78
2024/01/31 02:20:30;;;;;;;6.65;4.47;;;;;;;0.95;100.00;94487.91;2087852;28;20025;-79
2024/01/31 02:21:33;;;;;;;8.02;4.45;;;;;;;0.96;100.00;94502.59;2104449;28;20024;-79
2024/01/31 02:22:34;;;;;;;6.30;4.07;;;;;;;0.96;100.00;94491.31;2075664;28;20049;-80
2024/01/31 02:23:35;;;;;;;5.78;3.92;;;;;;;0.71;100.00;94488.53;2080518;28;20025;-79
2024/01/31 02:24:36;;;;;;;6.18;3.80;;;;;;;0.73;100.00;94488.22;2076735;28;20124;-80
2024/01/31 02:25:37;;;;;;;6.13;4.35;;;;;;;0.85;100.00;94487.53;2089386;28;20478;-78
2024/01/31 02:26:42;;;;;;;4.97;3.88;;;;;;;0.86;100.00;94486.44;2104720;28;20032;-80
2024/01/31 02:27:43;;;;;;;7.13;4.22;;;;;;;0.92;100.00;94485.13;2096482;28;20380;-80
2024/01/31 02:28:44;;;;;;;5.45;4.15;;;;;;;0.98;100.00;94483.88;2087681;28;20028;-79
2024/01/31 02:29:45;;;;;;;6.28;4.00;;;;;;;0.97;100.00;94485.75;2096748;28;20227;-78
2024/01/31 02:30:46;;;;;;;7.15;3.70;;;;;;;0.93;100.00;94482.22;2084151;28;20091;-80
2024/01/31 02:31:47;;;;;;;7.07;3.85;;;;;;;0.89;100.00;94478.69;2087774;28;20425;-81
2024/01/31 02:32:48;;;;;;;5.10;3.80;;;;;;;0.90;100.00;94482.84;2084454;28;20020;-78
2024/01/31 02:33:49;;;;;;;6.30;3.75;;;;;;;0.89;100.00;94475.28;2086882;28;20033;-79
2024/01/31 02:34:50;;;;;;;8.48;3.78;;;;;;;0.85;100.00;94469.88;2093386;28;20111;-80
2024/01/31 02:35:51;;;;;;;7.03;4.47;;;;;;;0.85;100.00;94472.50;2086903;28;20138;-79
2024/01/31 02:36:52;;;;;;;6.70;3.75;;;;;;;0.91;100.00;94476.47;2097076;28;20134;-80
2024/01/31 02:37:53;;;;;;;5.72;3.70;;;;;;;0.83;100.00;94474.66;2080462;28;20028;-80
2024/01/31 02:38:54;;;;;;;8.02;3.45;;;;;;;0.80;100.00;94474.56;2080115;28;20394;-78
2024/01/31 02:39:55;;;;;;;6.50;4.05;;;;;;;0.83;100.00;94477.31;2080505;28;20032;-79
2024/01/31 02:40:56;;;;;;;7.28;3.90;;;;;;;0.85;100.00;94472.50;2069692;28;20092;-80
2024/01/31 02:41:57;;;;;;;6.38;3.90;;;;;;;0.83;100.00;94474.66;2087414;28;20040;-80
2024/01/31 02:42:59;;;;;;;6.18;4.20;;;;;;;0.81;100.00;94474.22;2087385;28;20373;-79
2024/01/31 02:44:00;;;;;;;6.55;4.05;;;;;;;0.73;100.00;94477.69;2096391;28;20901;-79
2024/01/31 02:45:01;;;;;;;8.80;4.18;;;;;;;0.71;100.00;94477.25;2094565;28;20032;-78
2024/01/31 02:46:02;;;;;;;6.38;3.60;;;;;;;0.73;100.00;94475.81;2082254;28;20097;-80
2024/01/31 02:47:05;;;;;;;6.03;4.15;;;;;;;0.62;100.00;94473.91;2073446;28;20137;-77
2024/01/31 02:48:08;;;;;;;5.55;3.80;;;;;;;0.60;100.00;94473.44;2073091;28;20020;-78
2024/01/31 02:49:09;;;;;;;6.13;3.40;;;;;;;0.58;100.00;94476.41;2096777;28;20032;-78
2024/01/31 02:50:10;;;;;;;5.53;3.65;;;;;;;0.56;100.00;94475.94;2085186;28;20469;-78
2024/01/31 02:51:11;;;;;;;7.15;3.90;;;;;;;0.43;100.00;94472.44;2077863;28;20137;-78
2024/01/31 02:52:12;;;;;;;5.22;3.50;;;;;;;0.42;100.00;94467.50;2094730;28;20029;-80
2024/01/31 02:53:13;;;;;;;5.95;3.58;;;;;;;0.58;100.00;94465.09;2076319;28;20028;-78
2024/01/31 02:54:14;;;;;;;7.65;4.22;;;;;;;0.59;100.00;94464.00;2089080;28;20020;-80
2024/01/31 02:55:15;;;;;;;5.70;3.38;;;;;;;0.50;100.00;94464.81;2015481;28;20134;-80
2024/01/31 02:56:16;;;;;;;6.47;3.92;;;;;;;0.52;100.00;94469.00;2005014;28;20029;-79
2024/01/31 02:57:18;;;;;;;5.60;3.50;;;;;;;0.48;100.00;94474.09;2024694;28;20109;-80
2024/01/31 02:58:19;;;;;;;5.18;3.53;;;;;;;0.42;100.00;94468.28;2028412;28;20055;-80
2024/01/31 02:59:22;;;;;;;5.97;3.63;;;;;;;0.48;100.00;94468.84;2027373;28;20505;-79
2024/01/31 03:00:23;;;;;;;7.38;3.85;;;;;;;0.53;100.00;94463.44;2029261;28;20028;-80
2024/01/31 03:01:24;;;;;;;6.88;4.15;;;;;;;0.59;100.00;94464.00;2000655;28;21086;-79
2024/01/31 03:02:25;;;;;;;7.28;3.92;;;;;;;0.62;100.00;94463.38;2028635;28;20352;-78
2024/01/31 03:03:26;;;;;;;5.95;3.20;;;;;;;0.57;100.00;94461.72;2041458;28;21090;-77
2024/01/31 03:04:27;;;;;;;6.40;3.78;;;;;;;0.56;100.00;94457.50;2028449;28;20453;-81
2024/01/31 03:05:28;;;;;;;5.07;3.70;;;;;;;0.53;100.00;94463.44;2037641;28;20527;-81
2024/01/31 03:06:29;;;;;;;6.38;3.50;;;;;;;0.36;100.00;94461.66;2041399;28;21266;-81
2024/01/31 03:07:30;;;;;;;5.00;3.50;;;;;;;0.39;100.00;94460.25;2045328;28;20025;-78
2024/01/31 03:08:31;;;;;;;7.15;3.63;;;;;;;0.39;100.00;94461.00;2066859;28;20115;-78
2024/01/31 03:09:33;;;;;;;5.55;3.70;;;;;;;0.39;100.00;94450.47;2079462;28;20029;-80
2024/01/31 03:10:34;;;;;;;4.65;3.35;;;;;;;0.34;100.00;94455.16;2085511;28;20056;-80
2024/01/31 03:11:35;;;;;;;10.18;3.72;;;;;;;0.25;100.00;94455.22;2087066;28;20025;-79
2024/01/31 03:12:36;;;;;;;4.75;3.05;;;;;;;0.35;100.00;94459.34;2087182;28;20029;-80
2024/01/31 03:13:37;;;;;;;5.47;3.63;;;;;;;0.39;100.00;94461.00;2079712;28;20033;-78
2024/01/31 03:14:38;;;;;;;6.90;3.63;;;;;;;0.25;100.00;94455.97;2082841;28;20021;-80
2024/01/31 03:15:39;;;;;;;7.55;3.38;;;;;;;0.34;100.00;94455.94;2080177;28;20033;-81
2024/01/31 03:16:40;;;;;;;4.80;3.05;;;;;;;0.36;100.00;94458.25;2078993;28;20466;-80
2024/01/31 03:17:41;;;;;;;6.25;3.28;;;;;;;0.41;100.00;94456.22;2087760;28;20112;-82
2024/01/31 03:18:42;;;;;;;5.68;3.47;;;;;;;0.42;100.00;94455.13;2085717;28;20025;-81
2024/01/31 03:19:43;;;;;;;6.30;3.55;;;;;;;0.43;100.00;94461.16;2073888;28;20045;-81
2024/01/31 03:20:44;;;;;;;5.95;3.97;;;;;;;0.53;100.00;94457.38;2088528;28;20575;-80
2024/01/31 03:21:45;;;;;;;6.07;3.88;;;;;;;0.44;100.00;94455.59;2095933;28;20028;-79
2024/01/31 03:22:46;;;;;;;5.80;3.33;;;;;;;0.43;100.00;94458.50;2104096;28;20031;-79
2024/01/31 03:23:47;;;;;;;4.57;3.70;;;;;;;0.49;100.00;94458.03;2095466;28;20702;-79
2024/01/31 03:24:47;;;;;;;4.28;3.78;;;;;;;0.51;100.00;94462.97;2078761;28;20025;-79
2024/01/31 03:25:50;;;;;;;4.43;3.75;;;;;;;0.60;100.00;94457.66;2073235;28;20030;-79
2024/01/31 03:26:54;;;;;;;5.93;3.83;;;;;;;0.58;100.00;94460.59;2084740;28;20025;-81
2024/01/31 03:27:55;;;;;;;4.43;4.00;;;;;;;0.61;100.00;94465.22;2082068;28;20022;-80
2024/01/31 03:28:56;;;;;;;4.07;3.38;;;;;;;0.58;100.00;94457.97;2085413;28;20702;-78
2024/01/31 03:30:01;;;;;;;4.00;3.58;;;;;;;0.46;100.00;94460.53;2089581;28;20078;-79
2024/01/31 03:31:02;;;;;;;4.40;4.03;;;;;;;0.66;100.00;94456.38;2088902;28;20029;-78
2024/01/31 03:32:04;;;;;;;5.40;4.20;;;;;;;0.72;100.00;94455.09;2083946;28;20098;-80
2024/01/31 03:33:05;;;;;;;4.60;3.30;;;;;;;0.94;100.00;94461.91;2078827;28;20052;-81
2024/01/31 03:34:06;;;;;;;3.92;3.40;;;;;;;0.97;100.00;94467.31;2081502;28;20567;-80
2024/01/31 03:35:07;;;;;;;5.22;3.47;;;;;;;1.10;100.00;94470.00;2081567;28;20488;-79
2024/01/31 03:36:11;;;;;;;5.25;3.60;;;;;;;0.94;100.00;94454.78;2086329;28;20079;-80
2024/01/31 03:37:12;;;;;;;3.90;3.50;;;;;;;1.00;100.00;94460.63;2100227;28;20029;-78
2024/01/31 03:38:13;;;;;;;3.72;3.35;;;;;;;1.33;100.00;94459.91;2096514;28;20074;-79
2024/01/31 03:39:14;;;;;;;5.20;3.63;;;;;;;1.17;100.00;94457.09;2087980;28;20026;-79
2024/01/31 03:40:15;;;;;;;4.25;3.47;;;;;;;1.21;100.00;94461.38;2085218;28;20083;-80
2024/01/31 03:41:16;;;;;;;3.85;3.45;;;;;;;1.26;100.00;94468.31;2095986;28;20419;-78
2024/01/31 03:42:18;;;;;;;5.28;3.40;;;;;;;1.25;100.00;94450.97;2095943;28;20028;-81
2024/01/31 03:43:20;;;;;;;4.18;3.47;;;;;;;1.15;100.00;94459.28;2095890;28;20032;-78
2024/01/31 03:44:21;;;;;;;4.10;3.35;;;;;;;1.17;100.00;94465.75;2105093;28;20024;-79
2024/01/31 03:45:22;;;;;;;4.10;3.60;;;;;;;1.22;100.00;94460.28;2098095;28;20051;-80
2024/01/31 03:46:24;;;;;;;4.18;3.53;;;;;;;1.27;100.00;94464.59;2081489;28;20071;-80
2024/01/31 03:47:25;;;;;;;4.60;3.65;;;;;;;1.26;100.00;94466.44;2082617;28;20112;-79
2024/01/31 03:48:29;;;;;;;4.57;3.55;;;;;;;1.23;100.00;94467.13;2034752;28;20481;-79
2024/01/31 03:49:30;;;;;;;4.50;3.75;;;;;;;1.29;100.00;94464.28;2015355;28;20032;-79
2024/01/31 03:50:31;;;;;;;5.03;3.55;;;;;;;1.33;100.00;94465.19;2019690;28;20040;-80
2024/01/31 03:51:32;;;;;;;4.03;3.50;;;;;;;1.21;100.00;94466.66;2012798;28;21914;-80
2024/01/31 03:52:35;;;;;;;6.32;3.97;;;;;;;1.36;100.00;94469.78;2025828;28;22078;-79
2024/01/31 03:53:36;;;;;;;4.50;3.85;;;;;;;1.33;100.00;94465.19;2025542;28;20045;-78
2024/01/31 03:54:37;;;;;;;4.90;3.30;;;;;;;1.41;100.00;94464.34;2019340;28;23338;-80
2024/01/31 03:55:39;;;;;;;4.22;3.53;;;;;;;1.44;100.00;94461.03;2020282;28;20151;-79
2024/01/31 03:56:42;;;;;;;5.72;3.33;;;;;;;1.44;100.00;94461.78;2042069;28;22192;-79
2024/01/31 03:57:43;;;;;;;4.40;3.63;;;;;;;1.47;100.00;94465.66;2054835;28;20123;-81
2024/01/31 03:58:44;;;;;;;3.50;3.20;;;;;;;1.45;100.00;94463.34;2050711;28;20028;-80
2024/01/31 03:59:45;;;;;;;4.18;3.72;;;;;;;1.47;100.00;94460.38;2049630;28;20033;-81
2024/01/31 04:00:46;;;;;;;4.35;3.90;;;;;;;1.48;100.00;94460.06;2055978;28;20030;-78
2024/01/31 04:01:50;;;;;;;4.43;3.50;;;;;;;1.48;100.00;94461.91;2069514;28;20127;-78
2024/01/31 04:02:51;;;;;;;4.25;3.70;;;;;;;1.41;100.00;94461.69;2095986;28;20024;-78
2024/01/31 04:03:52;;;;;;;4.68;3.78;;;;;;;1.43;100.00;94459.50;2089653;28;20371;-79
2024/01/31 04:04:53;;;;;;;4.95;3.50;;;;;;;1.45;100.00;94460.72;2087988;28;20032;-79
2024/01/31 04:05:55;;;;;;;5.88;3.85;;;;;;;1.43;100.00;94452.34;2088617;28;20527;-80
2024/01/31 04:06:56;;;;;;;7.00;3.78;;;;;;;1.54;100.00;94465.13;2079134;28;20507;-79
2024/01/31 04:07:57;;;;;;;5.38;3.80;;;;;;;1.62;100.00;94456.38;2088056;28;20473;-77
2024/01/31 04:08:58;;;;;;;4.72;3.80;;;;;;;1.60;100.00;94463.84;2089859;28;20028;-80
2024/01/31 04:09:59;;;;;;;4.25;3.15;;;;;;;1.69;100.00;94462.66;2081455;28;20470;-79
2024/01/31 04:11:00;;;;;;;4.68;3.78;;;;;;;1.68;100.00;94471.66;2097828;28;20020;-78
2024/01/31 04:12:02;;;;;;;5.10;3.85;;;;;;;1.69;100.00;94462.66;2104023;28;20028;-80
2024/01/31 04:13:03;;;;;;;3.50;3.20;;;;;;;1.76;100.00;94464.75;2088555;28;20043;-81
2024/01/31 04:14:06;;;;;;;4.47;3.80;;;;;;;1.83;100.00;94466.84;2089680;28;20531;-80
2024/01/31 04:15:07;;;;;;;3.45;3.15;;;;;;;1.84;100.00;94461.25;2096628;28;20028;-80
2024/01/31 04:16:08;;;;;;;4.18;3.78;;;;;;;1.78;100.00;94462.56;2097151;28;20029;-80
2024/01/31 04:17:09;;;;;;;5.40;3.40;;;;;;;1.84;100.00;94463.13;2088946;28;20683;-81
2024/01/31 04:18:10;;;;;;;3.97;3.30;;;;;;;1.80;100.00;94464.84;2104676;28;20016;-80
2024/01/31 04:19:24;;;;;;;4.10;3.38;;;;;;;1.86;100.00;94468.84;2102995;28;20019;-81
2024/01/31 04:20:25;;;;;;;4.75;4.00;;;;;;;1.87;100.00;94457.97;2104255;28;20085;-80
2024/01/31 04:21:26;;;;;;;5.60;3.97;;;;;;;1.86;100.00;94460.94;2101023;28;20032;-79
2024/01/31 04:22:27;;;;;;;4.30;3.90;;;;;;;1.85;100.00;94462.81;2096302;28;20029;-80
2024/01/31 04:23:28;;;;;;;6.22;4.25;;;;;;;1.82;100.00;94460.03;2085777;28;20036;-80
2024/01/31 04:24:29;;;;;;;4.43;3.92;;;;;;;1.75;100.00;94460.56;2083339;28;20067;-78
2024/01/31 04:25:30;;;;;;;4.45;4.00;;;;;;;1.69;100.00;94460.00;2085098;28;20056;-80
2024/01/31 04:26:31;;;;;;;4.47;4.07;;;;;;;1.70;100.00;94455.50;2087127;28;20072;-78
2024/01/31 04:27:32;;;;;;;4.88;3.88;;;;;;;1.72;100.00;94456.72;2090403;28;20066;-78
2024/01/31 04:28:33;;;;;;;5.20;4.50;;;;;;;1.60;100.00;94455.94;2085421;28;20589;-80
2024/01/31 04:29:34;;;;;;;5.35;4.15;;;;;;;1.69;100.00;94451.34;2087404;28;20062;-79
2024/01/31 04:30:35;;;;;;;4.22;3.83;;;;;;;1.81;100.00;94459.28;2074046;28;20084;-80
2024/01/31 04:31:36;;;;;;;4.55;4.15;;;;;;;1.75;100.00;94463.97;2064829;28;20030;-79
2024/01/31 04:32:37;;;;;;;5.97;4.28;;;;;;;1.72;100.00;94462.00;2078885;28;20037;-80
2024/01/31 04:33:38;;;;;;;4.72;3.90;;;;;;;1.72;100.00;94466.50;2089548;28;20043;-79
2024/01/31 04:34:39;;;;;;;4.53;3.55;;;;;;;1.85;100.00;94476.00;2088321;28;20513;-79
2024/01/31 04:35:40;;;;;;;6.22;3.70;;;;;;;1.93;100.00;94471.69;2086121;28;20318;-79
2024/01/31 04:36:41;;;;;;;5.70;3.90;;;;;;;1.89;100.00;94465.53;2089087;28;20076;-80
2024/01/31 04:37:43;;;;;;;4.43;3.97;;;;;;;1.88;100.00;94464.78;2080423;28;20718;-81
2024/01/31 04:38:44;;;;;;;4.90;4.25;;;;;;;1.83;100.00;94464.22;2071425;28;20149;-78
2024/01/31 04:39:45;;;;;;;5.35;4.45;;;;;;;1.81;100.00;94467.19;2073004;28;20037;-81
2024/01/31 04:40:46;;;;;;;5.68;4.40;;;;;;;1.81;100.00;94469.81;2070919;28;20379;-79
2024/01/31 04:41:47;;;;;;;7.07;4.43;;;;;;;1.86;100.00;94466.97;2080120;28;20040;-78
2024/01/31 04:42:48;;;;;;;5.13;4.07;;;;;;;1.87;100.00;94468.50;2087069;28;20063;-80
2024/01/31 04:43:49;;;;;;;5.95;4.10;;;;;;;1.86;100.00;94466.22;2078550;28;20076;-81
2024/01/31 04:44:50;;;;;;;6.07;4.25;;;;;;;1.83;100.00;94457.06;2081190;28;20026;-78
2024/01/31 04:45:50;;;;;;;6.00;4.63;;;;;;;1.79;100.00;94466.72;2072252;28;20025;-80
2024/01/31 04:46:51;;;;;;;5.35;4.45;;;;;;;1.87;100.00;94457.19;2088139;28;20049;-81
2024/01/31 04:47:52;;;;;;;5.40;4.82;;;;;;;1.78;100.00;94457.28;2092399;28;20064;-81
2024/01/31 04:48:53;;;;;;;4.72;4.22;;;;;;;1.92;100.00;94457.75;2079325;28;20378;-80